sensor_id;sensor_type;location;lat;lon;timestamp;P1;durP1;ratioP1;P2;durP2;ratioP2
32292;SDS011;43233;48.608;8.838;2022-09-01T00:00:35;18.10;;;13.60;;
32292;SDS011;43233;48.608;8.838;2022-09-01T00:03:02;17.17;;;13.80;;
32292;SDS011;43233;48.608;8.838;2022-09-01T00:05:28;17.90;;;14.80;;
32292;SDS011;43233;48.608;8.838;2022-09-01T00:07:57;17.37;;;14.67;;
32292;SDS011;43233;48.608;8.838;2022-09-01T00:10:22;15.77;;;14.10;;
32292;SDS011;43233;48.608;8.838;2022-09-01T00:12:49;17.70;;;14.63;;
32292;SDS011;43233;48.608;8.838;2022-09-01T00:15:15;17.50;;;14.27;;
32292;SDS011;43233;48.608;8.838;2022-09-01T00:17:41;16.47;;;12.93;;
32292;SDS011;43233;48.608;8.838;2022-09-01T00:20:07;17.80;;;15.37;;
32292;SDS011;43233;48.608;8.838;2022-09-01T00:22:34;22.43;;;14.60;;
32292;SDS011;43233;48.608;8.838;2022-09-01T00:25:00;15.00;;;13.13;;
32292;SDS011;43233;48.608;8.838;2022-09-01T00:27:26;16.87;;;12.83;;
32292;SDS011;43233;48.608;8.838;2022-09-01T00:29:52;14.17;;;12.67;;
32292;SDS011;43233;48.608;8.838;2022-09-01T00:32:17;14.53;;;11.70;;
32292;SDS011;43233;48.608;8.838;2022-09-01T00:34:43;17.20;;;13.37;;
32292;SDS011;43233;48.608;8.838;2022-09-01T00:37:09;15.60;;;11.70;;
32292;SDS011;43233;48.608;8.838;2022-09-01T00:39:35;12.57;;;11.27;;
32292;SDS011;43233;48.608;8.838;2022-09-01T00:42:00;16.50;;;11.97;;
32292;SDS011;43233;48.608;8.838;2022-09-01T00:44:28;12.60;;;10.57;;
32292;SDS011;43233;48.608;8.838;2022-09-01T00:46:54;13.93;;;11.10;;
32292;SDS011;43233;48.608;8.838;2022-09-01T00:52:19;13.33;;;10.07;;
32292;SDS011;43233;48.608;8.838;2022-09-01T00:54:49;14.27;;;10.63;;
32292;SDS011;43233;48.608;8.838;2022-09-01T00:57:19;14.30;;;11.70;;
32292;SDS011;43233;48.608;8.838;2022-09-01T00:59:58;13.00;;;11.03;;
32292;SDS011;43233;48.608;8.838;2022-09-01T01:02:28;15.63;;;12.10;;
32292;SDS011;43233;48.608;8.838;2022-09-01T01:04:54;12.40;;;10.30;;
32292;SDS011;43233;48.608;8.838;2022-09-01T01:07:23;13.43;;;11.00;;
32292;SDS011;43233;48.608;8.838;2022-09-01T01:09:51;19.67;;;14.77;;
32292;SDS011;43233;48.608;8.838;2022-09-01T01:12:18;18.90;;;14.43;;
32292;SDS011;43233;48.608;8.838;2022-09-01T01:14:45;22.20;;;16.67;;
32292;SDS011;43233;48.608;8.838;2022-09-01T01:17:14;21.97;;;16.40;;
32292;SDS011;43233;48.608;8.838;2022-09-01T01:19:45;21.23;;;16.53;;
32292;SDS011;43233;48.608;8.838;2022-09-01T01:28:06;22.03;;;15.93;;
32292;SDS011;43233;48.608;8.838;2022-09-01T01:30:34;20.70;;;15.80;;
32292;SDS011;43233;48.608;8.838;2022-09-01T01:33:02;24.13;;;15.87;;
32292;SDS011;43233;48.608;8.838;2022-09-01T01:35:29;17.93;;;15.30;;
32292;SDS011;43233;48.608;8.838;2022-09-01T01:37:56;15.97;;;14.27;;
32292;SDS011;43233;48.608;8.838;2022-09-01T01:40:22;20.27;;;13.70;;
32292;SDS011;43233;48.608;8.838;2022-09-01T01:42:49;18.37;;;15.17;;
32292;SDS011;43233;48.608;8.838;2022-09-01T01:45:18;16.30;;;13.83;;
32292;SDS011;43233;48.608;8.838;2022-09-01T01:47:47;18.30;;;14.67;;
32292;SDS011;43233;48.608;8.838;2022-09-01T01:50:18;17.33;;;14.23;;
32292;SDS011;43233;48.608;8.838;2022-09-01T01:52:45;19.10;;;16.20;;
32292;SDS011;43233;48.608;8.838;2022-09-01T01:55:11;15.50;;;13.47;;
32292;SDS011;43233;48.608;8.838;2022-09-01T01:57:38;19.43;;;16.03;;
32292;SDS011;43233;48.608;8.838;2022-09-01T02:00:04;18.50;;;14.33;;
32292;SDS011;43233;48.608;8.838;2022-09-01T02:02:31;17.37;;;14.10;;
32292;SDS011;43233;48.608;8.838;2022-09-01T02:04:57;17.63;;;15.10;;
32292;SDS011;43233;48.608;8.838;2022-09-01T02:07:23;16.73;;;13.90;;
32292;SDS011;43233;48.608;8.838;2022-09-01T02:09:49;15.77;;;13.70;;
32292;SDS011;43233;48.608;8.838;2022-09-01T02:12:14;19.07;;;15.07;;
32292;SDS011;43233;48.608;8.838;2022-09-01T02:14:43;15.13;;;13.40;;
32292;SDS011;43233;48.608;8.838;2022-09-01T02:17:09;16.13;;;14.10;;
32292;SDS011;43233;48.608;8.838;2022-09-01T02:19:34;14.37;;;12.87;;
32292;SDS011;43233;48.608;8.838;2022-09-01T02:22:07;15.90;;;13.73;;
32292;SDS011;43233;48.608;8.838;2022-09-01T02:24:35;14.67;;;13.10;;
32292;SDS011;43233;48.608;8.838;2022-09-01T02:27:01;16.10;;;13.83;;
32292;SDS011;43233;48.608;8.838;2022-09-01T02:29:27;16.23;;;13.87;;
32292;SDS011;43233;48.608;8.838;2022-09-01T02:31:53;15.53;;;13.80;;
32292;SDS011;43233;48.608;8.838;2022-09-01T02:34:19;18.20;;;14.43;;
32292;SDS011;43233;48.608;8.838;2022-09-01T02:36:50;15.27;;;13.53;;
32292;SDS011;43233;48.608;8.838;2022-09-01T02:39:19;15.27;;;13.03;;
32292;SDS011;43233;48.608;8.838;2022-09-01T02:41:47;14.33;;;12.50;;
32292;SDS011;43233;48.608;8.838;2022-09-01T02:44:13;16.43;;;14.33;;
32292;SDS011;43233;48.608;8.838;2022-09-01T02:46:41;16.90;;;14.40;;
32292;SDS011;43233;48.608;8.838;2022-09-01T02:49:11;16.40;;;14.43;;
32292;SDS011;43233;48.608;8.838;2022-09-01T02:51:48;15.10;;;13.20;;
32292;SDS011;43233;48.608;8.838;2022-09-01T02:54:18;14.70;;;13.10;;
32292;SDS011;43233;48.608;8.838;2022-09-01T02:56:47;17.90;;;13.20;;
32292;SDS011;43233;48.608;8.838;2022-09-01T02:59:15;15.10;;;13.40;;
32292;SDS011;43233;48.608;8.838;2022-09-01T03:01:45;15.10;;;13.10;;
32292;SDS011;43233;48.608;8.838;2022-09-01T03:04:12;13.53;;;12.17;;
32292;SDS011;43233;48.608;8.838;2022-09-01T03:06:38;14.23;;;12.70;;
32292;SDS011;43233;48.608;8.838;2022-09-01T03:09:06;15.43;;;13.83;;
32292;SDS011;43233;48.608;8.838;2022-09-01T03:11:34;15.77;;;14.13;;
32292;SDS011;43233;48.608;8.838;2022-09-01T03:14:03;16.20;;;14.60;;
32292;SDS011;43233;48.608;8.838;2022-09-01T03:16:33;16.37;;;13.70;;
32292;SDS011;43233;48.608;8.838;2022-09-01T03:19:01;16.07;;;13.17;;
32292;SDS011;43233;48.608;8.838;2022-09-01T03:21:28;14.07;;;12.57;;
32292;SDS011;43233;48.608;8.838;2022-09-01T03:23:56;16.20;;;13.63;;
32292;SDS011;43233;48.608;8.838;2022-09-01T03:26:22;16.60;;;13.60;;
32292;SDS011;43233;48.608;8.838;2022-09-01T03:28:49;19.73;;;15.97;;
32292;SDS011;43233;48.608;8.838;2022-09-01T03:31:16;15.43;;;13.80;;
32292;SDS011;43233;48.608;8.838;2022-09-01T03:33:43;16.60;;;14.90;;
32292;SDS011;43233;48.608;8.838;2022-09-01T03:36:09;16.17;;;13.37;;
32292;SDS011;43233;48.608;8.838;2022-09-01T03:38:46;15.27;;;13.57;;
32292;SDS011;43233;48.608;8.838;2022-09-01T03:41:14;17.73;;;15.10;;
32292;SDS011;43233;48.608;8.838;2022-09-01T03:43:42;15.90;;;14.07;;
32292;SDS011;43233;48.608;8.838;2022-09-01T03:46:08;18.80;;;16.77;;
32292;SDS011;43233;48.608;8.838;2022-09-01T03:48:35;16.87;;;14.87;;
32292;SDS011;43233;48.608;8.838;2022-09-01T03:51:00;23.50;;;16.10;;
32292;SDS011;43233;48.608;8.838;2022-09-01T03:53:27;18.93;;;15.37;;
32292;SDS011;43233;48.608;8.838;2022-09-01T03:55:54;16.53;;;14.77;;
32292;SDS011;43233;48.608;8.838;2022-09-01T03:58:22;22.73;;;17.60;;
32292;SDS011;43233;48.608;8.838;2022-09-01T04:00:53;20.23;;;15.70;;
32292;SDS011;43233;48.608;8.838;2022-09-01T04:03:22;28.33;;;18.87;;
32292;SDS011;43233;48.608;8.838;2022-09-01T04:05:50;22.00;;;17.63;;
32292;SDS011;43233;48.608;8.838;2022-09-01T04:08:17;20.00;;;15.80;;
32292;SDS011;43233;48.608;8.838;2022-09-01T04:10:48;19.90;;;16.60;;
32292;SDS011;43233;48.608;8.838;2022-09-01T04:13:20;23.03;;;16.97;;
32292;SDS011;43233;48.608;8.838;2022-09-01T04:15:51;19.70;;;15.37;;
32292;SDS011;43233;48.608;8.838;2022-09-01T04:18:17;18.87;;;16.17;;
32292;SDS011;43233;48.608;8.838;2022-09-01T04:20:47;21.10;;;16.60;;
32292;SDS011;43233;48.608;8.838;2022-09-01T04:23:22;19.97;;;16.03;;
32292;SDS011;43233;48.608;8.838;2022-09-01T04:25:55;17.37;;;14.07;;
32292;SDS011;43233;48.608;8.838;2022-09-01T04:28:24;17.47;;;14.43;;
32292;SDS011;43233;48.608;8.838;2022-09-01T04:30:58;13.37;;;11.97;;
32292;SDS011;43233;48.608;8.838;2022-09-01T04:33:32;12.37;;;11.03;;
32292;SDS011;43233;48.608;8.838;2022-09-01T04:36:04;15.37;;;12.97;;
32292;SDS011;43233;48.608;8.838;2022-09-01T04:38:37;15.90;;;13.90;;
32292;SDS011;43233;48.608;8.838;2022-09-01T04:41:05;18.53;;;15.03;;
32292;SDS011;43233;48.608;8.838;2022-09-01T04:43:34;19.70;;;15.30;;
32292;SDS011;43233;48.608;8.838;2022-09-01T04:46:00;16.03;;;14.20;;
32292;SDS011;43233;48.608;8.838;2022-09-01T04:48:27;14.13;;;12.73;;
32292;SDS011;43233;48.608;8.838;2022-09-01T04:50:53;16.80;;;13.93;;
32292;SDS011;43233;48.608;8.838;2022-09-01T04:53:20;15.20;;;13.53;;
32292;SDS011;43233;48.608;8.838;2022-09-01T04:55:47;12.80;;;11.40;;
32292;SDS011;43233;48.608;8.838;2022-09-01T04:58:15;16.40;;;13.70;;
32292;SDS011;43233;48.608;8.838;2022-09-01T05:00:45;15.07;;;12.97;;
32292;SDS011;43233;48.608;8.838;2022-09-01T05:03:13;24.93;;;15.10;;
32292;SDS011;43233;48.608;8.838;2022-09-01T05:05:43;15.87;;;13.90;;
32292;SDS011;43233;48.608;8.838;2022-09-01T05:08:10;19.20;;;14.40;;
32292;SDS011;43233;48.608;8.838;2022-09-01T05:10:41;21.63;;;16.10;;
32292;SDS011;43233;48.608;8.838;2022-09-01T05:13:09;20.63;;;16.83;;
32292;SDS011;43233;48.608;8.838;2022-09-01T05:15:37;18.13;;;14.87;;
32292;SDS011;43233;48.608;8.838;2022-09-01T05:18:05;13.60;;;12.20;;
32292;SDS011;43233;48.608;8.838;2022-09-01T05:20:40;17.30;;;13.37;;
32292;SDS011;43233;48.608;8.838;2022-09-01T05:23:07;16.77;;;11.97;;
32292;SDS011;43233;48.608;8.838;2022-09-01T05:25:37;15.20;;;13.17;;
32292;SDS011;43233;48.608;8.838;2022-09-01T05:28:08;21.00;;;15.00;;
32292;SDS011;43233;48.608;8.838;2022-09-01T05:30:36;14.80;;;13.00;;
32292;SDS011;43233;48.608;8.838;2022-09-01T05:33:03;19.97;;;15.20;;
32292;SDS011;43233;48.608;8.838;2022-09-01T05:35:36;18.47;;;14.23;;
32292;SDS011;43233;48.608;8.838;2022-09-01T05:38:04;19.93;;;14.30;;
32292;SDS011;43233;48.608;8.838;2022-09-01T05:40:35;20.33;;;13.60;;
32292;SDS011;43233;48.608;8.838;2022-09-01T05:43:05;17.30;;;14.60;;
32292;SDS011;43233;48.608;8.838;2022-09-01T05:45:34;16.30;;;13.23;;
32292;SDS011;43233;48.608;8.838;2022-09-01T05:48:00;15.50;;;13.47;;
32292;SDS011;43233;48.608;8.838;2022-09-01T05:50:27;14.63;;;12.63;;
32292;SDS011;43233;48.608;8.838;2022-09-01T05:52:52;17.87;;;13.83;;
32292;SDS011;43233;48.608;8.838;2022-09-01T05:55:18;18.60;;;15.83;;
32292;SDS011;43233;48.608;8.838;2022-09-01T05:57:44;16.03;;;13.07;;
32292;SDS011;43233;48.608;8.838;2022-09-01T06:00:12;16.47;;;13.50;;
32292;SDS011;43233;48.608;8.838;2022-09-01T06:02:39;17.40;;;14.37;;
32292;SDS011;43233;48.608;8.838;2022-09-01T06:05:06;17.13;;;13.57;;
32292;SDS011;43233;48.608;8.838;2022-09-01T06:07:33;15.83;;;13.00;;
32292;SDS011;43233;48.608;8.838;2022-09-01T06:10:00;17.50;;;11.93;;
32292;SDS011;43233;48.608;8.838;2022-09-01T06:12:26;16.20;;;12.83;;
32292;SDS011;43233;48.608;8.838;2022-09-01T06:14:53;15.90;;;12.97;;
32292;SDS011;43233;48.608;8.838;2022-09-01T06:17:20;12.53;;;11.20;;
32292;SDS011;43233;48.608;8.838;2022-09-01T06:19:48;14.20;;;12.20;;
32292;SDS011;43233;48.608;8.838;2022-09-01T06:22:19;14.23;;;12.70;;
32292;SDS011;43233;48.608;8.838;2022-09-01T06:24:50;12.73;;;11.07;;
32292;SDS011;43233;48.608;8.838;2022-09-01T06:27:18;15.60;;;12.67;;
32292;SDS011;43233;48.608;8.838;2022-09-01T06:29:45;14.10;;;12.60;;
32292;SDS011;43233;48.608;8.838;2022-09-01T06:32:15;14.97;;;12.07;;
32292;SDS011;43233;48.608;8.838;2022-09-01T06:34:42;14.90;;;12.93;;
32292;SDS011;43233;48.608;8.838;2022-09-01T06:37:09;14.97;;;13.27;;
32292;SDS011;43233;48.608;8.838;2022-09-01T06:39:38;17.33;;;14.17;;
32292;SDS011;43233;48.608;8.838;2022-09-01T06:42:04;18.77;;;14.00;;
32292;SDS011;43233;48.608;8.838;2022-09-01T06:44:30;18.20;;;14.30;;
32292;SDS011;43233;48.608;8.838;2022-09-01T06:46:56;13.83;;;12.33;;
32292;SDS011;43233;48.608;8.838;2022-09-01T06:49:23;20.07;;;12.77;;
32292;SDS011;43233;48.608;8.838;2022-09-01T06:51:57;19.73;;;13.70;;
32292;SDS011;43233;48.608;8.838;2022-09-01T06:54:23;14.73;;;12.37;;
32292;SDS011;43233;48.608;8.838;2022-09-01T06:56:49;20.10;;;16.60;;
32292;SDS011;43233;48.608;8.838;2022-09-01T06:59:15;15.40;;;12.77;;
32292;SDS011;43233;48.608;8.838;2022-09-01T07:01:41;15.20;;;12.70;;
32292;SDS011;43233;48.608;8.838;2022-09-01T07:04:07;15.70;;;13.13;;
32292;SDS011;43233;48.608;8.838;2022-09-01T07:06:33;14.53;;;11.70;;
32292;SDS011;43233;48.608;8.838;2022-09-01T07:09:01;16.00;;;13.07;;
32292;SDS011;43233;48.608;8.838;2022-09-01T07:11:28;17.17;;;13.57;;
32292;SDS011;43233;48.608;8.838;2022-09-01T07:13:58;14.07;;;12.27;;
32292;SDS011;43233;48.608;8.838;2022-09-01T07:16:29;14.93;;;12.20;;
32292;SDS011;43233;48.608;8.838;2022-09-01T07:19:03;14.60;;;11.73;;
32292;SDS011;43233;48.608;8.838;2022-09-01T07:21:30;18.00;;;13.77;;
32292;SDS011;43233;48.608;8.838;2022-09-01T07:23:56;16.43;;;12.90;;
32292;SDS011;43233;48.608;8.838;2022-09-01T07:26:25;16.07;;;13.50;;
32292;SDS011;43233;48.608;8.838;2022-09-01T07:28:53;16.50;;;14.57;;
32292;SDS011;43233;48.608;8.838;2022-09-01T07:31:20;16.30;;;13.07;;
32292;SDS011;43233;48.608;8.838;2022-09-01T07:33:48;15.30;;;12.33;;
32292;SDS011;43233;48.608;8.838;2022-09-01T07:36:18;18.03;;;12.97;;
32292;SDS011;43233;48.608;8.838;2022-09-01T07:38:44;14.50;;;13.00;;
32292;SDS011;43233;48.608;8.838;2022-09-01T07:41:19;14.93;;;10.70;;
32292;SDS011;43233;48.608;8.838;2022-09-01T07:43:46;13.53;;;10.17;;
32292;SDS011;43233;48.608;8.838;2022-09-01T07:46:16;12.40;;;9.60;;
32292;SDS011;43233;48.608;8.838;2022-09-01T07:48:43;17.40;;;10.60;;
32292;SDS011;43233;48.608;8.838;2022-09-01T07:51:10;11.73;;;10.30;;
32292;SDS011;43233;48.608;8.838;2022-09-01T07:53:38;14.33;;;10.53;;
32292;SDS011;43233;48.608;8.838;2022-09-01T07:56:05;13.23;;;11.10;;
32292;SDS011;43233;48.608;8.838;2022-09-01T07:58:33;12.83;;;9.90;;
32292;SDS011;43233;48.608;8.838;2022-09-01T08:01:05;11.30;;;10.20;;
32292;SDS011;43233;48.608;8.838;2022-09-01T08:03:32;14.43;;;11.63;;
32292;SDS011;43233;48.608;8.838;2022-09-01T08:06:03;13.80;;;11.47;;
32292;SDS011;43233;48.608;8.838;2022-09-01T08:08:30;14.00;;;10.47;;
32292;SDS011;43233;48.608;8.838;2022-09-01T08:10:56;11.50;;;9.70;;
32292;SDS011;43233;48.608;8.838;2022-09-01T08:13:22;11.87;;;9.27;;
32292;SDS011;43233;48.608;8.838;2022-09-01T08:15:47;12.83;;;10.77;;
32292;SDS011;43233;48.608;8.838;2022-09-01T08:18:13;17.00;;;12.47;;
32292;SDS011;43233;48.608;8.838;2022-09-01T08:20:39;13.83;;;10.00;;
32292;SDS011;43233;48.608;8.838;2022-09-01T08:23:09;12.23;;;10.07;;
32292;SDS011;43233;48.608;8.838;2022-09-01T08:25:37;15.23;;;10.30;;
32292;SDS011;43233;48.608;8.838;2022-09-01T08:28:03;9.50;;;8.60;;
32292;SDS011;43233;48.608;8.838;2022-09-01T08:30:30;9.60;;;8.57;;
32292;SDS011;43233;48.608;8.838;2022-09-01T08:32:57;8.83;;;7.60;;
32292;SDS011;43233;48.608;8.838;2022-09-01T08:35:23;9.10;;;7.20;;
32292;SDS011;43233;48.608;8.838;2022-09-01T08:37:49;10.90;;;8.50;;
32292;SDS011;43233;48.608;8.838;2022-09-01T08:40:16;7.10;;;6.40;;
32292;SDS011;43233;48.608;8.838;2022-09-01T08:45:50;7.83;;;7.00;;
32292;SDS011;43233;48.608;8.838;2022-09-01T08:50:54;7.80;;;6.20;;
32292;SDS011;43233;48.608;8.838;2022-09-01T08:53:30;5.83;;;5.20;;
32292;SDS011;43233;48.608;8.838;2022-09-01T08:56:00;5.67;;;4.50;;
32292;SDS011;43233;48.608;8.838;2022-09-01T08:58:27;4.70;;;4.30;;
32292;SDS011;43233;48.608;8.838;2022-09-01T09:00:57;4.80;;;4.40;;
32292;SDS011;43233;48.608;8.838;2022-09-01T09:06:45;5.03;;;4.53;;
32292;SDS011;43233;48.608;8.838;2022-09-01T09:09:12;6.17;;;5.57;;
32292;SDS011;43233;48.608;8.838;2022-09-01T09:17:20;6.83;;;5.57;;
32292;SDS011;43233;48.608;8.838;2022-09-01T09:19:51;5.20;;;4.23;;
32292;SDS011;43233;48.608;8.838;2022-09-01T09:22:18;6.30;;;5.20;;
32292;SDS011;43233;48.608;8.838;2022-09-01T09:24:56;10.10;;;4.47;;
32292;SDS011;43233;48.608;8.838;2022-09-01T09:27:36;6.00;;;5.40;;
32292;SDS011;43233;48.608;8.838;2022-09-01T09:30:06;4.67;;;4.27;;
32292;SDS011;43233;48.608;8.838;2022-09-01T09:32:56;7.47;;;5.70;;
32292;SDS011;43233;48.608;8.838;2022-09-01T09:41:00;5.47;;;4.97;;
32292;SDS011;43233;48.608;8.838;2022-09-01T09:43:27;5.50;;;5.00;;
32292;SDS011;43233;48.608;8.838;2022-09-01T09:46:41;5.63;;;4.90;;
32292;SDS011;43233;48.608;8.838;2022-09-01T09:51:34;4.27;;;3.93;;
32292;SDS011;43233;48.608;8.838;2022-09-01T09:54:11;4.30;;;4.00;;
32292;SDS011;43233;48.608;8.838;2022-09-01T09:56:48;5.07;;;4.67;;
32292;SDS011;43233;48.608;8.838;2022-09-01T09:59:35;7.07;;;4.80;;
32292;SDS011;43233;48.608;8.838;2022-09-01T10:05:00;4.47;;;4.07;;
32292;SDS011;43233;48.608;8.838;2022-09-01T10:07:45;3.70;;;3.40;;
32292;SDS011;43233;48.608;8.838;2022-09-01T10:12:51;6.00;;;4.07;;
32292;SDS011;43233;48.608;8.838;2022-09-01T10:15:18;4.27;;;3.90;;
32292;SDS011;43233;48.608;8.838;2022-09-01T10:17:50;4.70;;;4.30;;
32292;SDS011;43233;48.608;8.838;2022-09-01T10:22:45;4.63;;;4.23;;
32292;SDS011;43233;48.608;8.838;2022-09-01T10:25:25;4.23;;;3.93;;
32292;SDS011;43233;48.608;8.838;2022-09-01T10:27:57;3.43;;;3.13;;
32292;SDS011;43233;48.608;8.838;2022-09-01T10:30:30;5.03;;;4.63;;
32292;SDS011;43233;48.608;8.838;2022-09-01T10:32:56;3.67;;;3.37;;
32292;SDS011;43233;48.608;8.838;2022-09-01T10:35:28;5.07;;;4.60;;
32292;SDS011;43233;48.608;8.838;2022-09-01T10:37:57;4.47;;;4.10;;
32292;SDS011;43233;48.608;8.838;2022-09-01T10:42:57;4.60;;;4.30;;
32292;SDS011;43233;48.608;8.838;2022-09-01T10:45:43;5.20;;;4.70;;
32292;SDS011;43233;48.608;8.838;2022-09-01T10:50:50;4.70;;;4.30;;
32292;SDS011;43233;48.608;8.838;2022-09-01T10:56:06;3.77;;;3.57;;
32292;SDS011;43233;48.608;8.838;2022-09-01T11:01:29;3.30;;;3.10;;
32292;SDS011;43233;48.608;8.838;2022-09-01T11:06:52;4.10;;;3.80;;
32292;SDS011;43233;48.608;8.838;2022-09-01T11:14:54;3.70;;;3.40;;
32292;SDS011;43233;48.608;8.838;2022-09-01T11:20:01;3.17;;;2.93;;
32292;SDS011;43233;48.608;8.838;2022-09-01T11:22:56;4.07;;;3.73;;
32292;SDS011;43233;48.608;8.838;2022-09-01T11:26:00;5.00;;;3.50;;
32292;SDS011;43233;48.608;8.838;2022-09-01T11:28:46;3.10;;;2.90;;
32292;SDS011;43233;48.608;8.838;2022-09-01T11:31:17;3.10;;;2.90;;
32292;SDS011;43233;48.608;8.838;2022-09-01T11:33:54;5.83;;;3.70;;
32292;SDS011;43233;48.608;8.838;2022-09-01T11:38:55;3.17;;;2.87;;
32292;SDS011;43233;48.608;8.838;2022-09-01T11:44:27;3.03;;;2.83;;
32292;SDS011;43233;48.608;8.838;2022-09-01T11:47:01;3.10;;;2.80;;
32292;SDS011;43233;48.608;8.838;2022-09-01T11:49:30;3.37;;;3.10;;
32292;SDS011;43233;48.608;8.838;2022-09-01T11:51:58;3.40;;;3.10;;
32292;SDS011;43233;48.608;8.838;2022-09-01T11:54:25;3.53;;;3.23;;
32292;SDS011;43233;48.608;8.838;2022-09-01T11:56:53;3.90;;;3.20;;
32292;SDS011;43233;48.608;8.838;2022-09-01T11:59:31;2.80;;;2.60;;
32292;SDS011;43233;48.608;8.838;2022-09-01T12:01:59;3.30;;;3.00;;
32292;SDS011;43233;48.608;8.838;2022-09-01T12:04:29;2.80;;;2.60;;
32292;SDS011;43233;48.608;8.838;2022-09-01T12:07:02;2.73;;;2.63;;
32292;SDS011;43233;48.608;8.838;2022-09-01T12:09:43;2.87;;;2.57;;
32292;SDS011;43233;48.608;8.838;2022-09-01T12:15:04;3.90;;;2.90;;
32292;SDS011;43233;48.608;8.838;2022-09-01T12:17:33;3.40;;;3.10;;
32292;SDS011;43233;48.608;8.838;2022-09-01T12:22:46;4.00;;;2.57;;
32292;SDS011;43233;48.608;8.838;2022-09-01T12:25:23;3.47;;;3.17;;
32292;SDS011;43233;48.608;8.838;2022-09-01T12:27:49;3.70;;;3.40;;
32292;SDS011;43233;48.608;8.838;2022-09-01T12:30:16;3.30;;;3.10;;
32292;SDS011;43233;48.608;8.838;2022-09-01T12:32:43;2.40;;;2.30;;
32292;SDS011;43233;48.608;8.838;2022-09-01T12:35:16;3.70;;;2.80;;
32292;SDS011;43233;48.608;8.838;2022-09-01T12:37:46;2.17;;;2.07;;
32292;SDS011;43233;48.608;8.838;2022-09-01T12:40:29;2.40;;;2.30;;
32292;SDS011;43233;48.608;8.838;2022-09-01T12:42:57;2.83;;;2.63;;
32292;SDS011;43233;48.608;8.838;2022-09-01T12:45:40;3.27;;;3.00;;
32292;SDS011;43233;48.608;8.838;2022-09-01T12:48:26;2.47;;;2.27;;
32292;SDS011;43233;48.608;8.838;2022-09-01T12:50:53;3.03;;;2.63;;
32292;SDS011;43233;48.608;8.838;2022-09-01T12:53:20;2.63;;;2.43;;
32292;SDS011;43233;48.608;8.838;2022-09-01T12:55:55;2.30;;;2.20;;
32292;SDS011;43233;48.608;8.838;2022-09-01T12:58:26;2.33;;;2.23;;
32292;SDS011;43233;48.608;8.838;2022-09-01T13:01:01;2.80;;;2.60;;
32292;SDS011;43233;48.608;8.838;2022-09-01T13:03:30;3.93;;;2.63;;
32292;SDS011;43233;48.608;8.838;2022-09-01T13:05:57;3.30;;;2.20;;
32292;SDS011;43233;48.608;8.838;2022-09-01T13:08:26;2.30;;;2.10;;
32292;SDS011;43233;48.608;8.838;2022-09-01T13:10:55;2.20;;;2.10;;
32292;SDS011;43233;48.608;8.838;2022-09-01T13:13:29;2.13;;;2.03;;
32292;SDS011;43233;48.608;8.838;2022-09-01T13:15:57;3.40;;;2.07;;
32292;SDS011;43233;48.608;8.838;2022-09-01T13:18:36;2.53;;;2.33;;
32292;SDS011;43233;48.608;8.838;2022-09-01T13:21:02;2.60;;;2.30;;
32292;SDS011;43233;48.608;8.838;2022-09-01T13:23:29;2.67;;;1.97;;
32292;SDS011;43233;48.608;8.838;2022-09-01T13:25:55;1.83;;;1.73;;
32292;SDS011;43233;48.608;8.838;2022-09-01T13:28:22;2.10;;;2.00;;
32292;SDS011;43233;48.608;8.838;2022-09-01T13:30:51;2.20;;;2.00;;
32292;SDS011;43233;48.608;8.838;2022-09-01T13:33:20;2.20;;;2.00;;
32292;SDS011;43233;48.608;8.838;2022-09-01T13:35:46;2.37;;;2.23;;
32292;SDS011;43233;48.608;8.838;2022-09-01T13:38:13;2.23;;;2.13;;
32292;SDS011;43233;48.608;8.838;2022-09-01T13:40:40;3.07;;;2.57;;
32292;SDS011;43233;48.608;8.838;2022-09-01T13:43:07;6.10;;;1.90;;
32292;SDS011;43233;48.608;8.838;2022-09-01T13:45:33;2.07;;;1.97;;
32292;SDS011;43233;48.608;8.838;2022-09-01T13:48:00;2.07;;;1.97;;
32292;SDS011;43233;48.608;8.838;2022-09-01T13:50:27;1.90;;;1.80;;
32292;SDS011;43233;48.608;8.838;2022-09-01T13:52:54;2.73;;;1.70;;
32292;SDS011;43233;48.608;8.838;2022-09-01T13:55:24;2.27;;;2.07;;
32292;SDS011;43233;48.608;8.838;2022-09-01T13:57:52;2.40;;;1.83;;
32292;SDS011;43233;48.608;8.838;2022-09-01T14:00:19;2.07;;;1.97;;
32292;SDS011;43233;48.608;8.838;2022-09-01T14:02:48;1.80;;;1.70;;
32292;SDS011;43233;48.608;8.838;2022-09-01T14:05:17;4.30;;;2.50;;
32292;SDS011;43233;48.608;8.838;2022-09-01T14:07:45;2.20;;;2.10;;
32292;SDS011;43233;48.608;8.838;2022-09-01T14:10:11;2.03;;;1.93;;
32292;SDS011;43233;48.608;8.838;2022-09-01T14:12:38;1.90;;;1.80;;
32292;SDS011;43233;48.608;8.838;2022-09-01T14:15:05;1.90;;;1.80;;
32292;SDS011;43233;48.608;8.838;2022-09-01T14:17:33;1.80;;;1.70;;
32292;SDS011;43233;48.608;8.838;2022-09-01T14:20:00;1.90;;;1.80;;
32292;SDS011;43233;48.608;8.838;2022-09-01T14:22:27;2.30;;;2.10;;
32292;SDS011;43233;48.608;8.838;2022-09-01T14:24:53;1.93;;;1.83;;
32292;SDS011;43233;48.608;8.838;2022-09-01T14:27:19;3.60;;;2.30;;
32292;SDS011;43233;48.608;8.838;2022-09-01T14:29:48;2.13;;;1.80;;
32292;SDS011;43233;48.608;8.838;2022-09-01T14:32:15;2.40;;;2.20;;
32292;SDS011;43233;48.608;8.838;2022-09-01T14:34:41;2.30;;;2.20;;
32292;SDS011;43233;48.608;8.838;2022-09-01T14:37:07;1.90;;;1.80;;
32292;SDS011;43233;48.608;8.838;2022-09-01T14:39:33;2.00;;;1.90;;
32292;SDS011;43233;48.608;8.838;2022-09-01T14:41:59;2.33;;;1.80;;
32292;SDS011;43233;48.608;8.838;2022-09-01T14:44:24;2.17;;;2.07;;
32292;SDS011;43233;48.608;8.838;2022-09-01T14:46:50;2.67;;;2.40;;
32292;SDS011;43233;48.608;8.838;2022-09-01T14:49:18;2.43;;;2.23;;
32292;SDS011;43233;48.608;8.838;2022-09-01T14:51:44;2.10;;;1.90;;
32292;SDS011;43233;48.608;8.838;2022-09-01T14:54:10;2.70;;;2.00;;
32292;SDS011;43233;48.608;8.838;2022-09-01T14:56:36;1.90;;;1.80;;
32292;SDS011;43233;48.608;8.838;2022-09-01T14:59:02;1.90;;;1.60;;
32292;SDS011;43233;48.608;8.838;2022-09-01T15:01:28;2.10;;;1.90;;
32292;SDS011;43233;48.608;8.838;2022-09-01T15:03:54;2.30;;;2.20;;
32292;SDS011;43233;48.608;8.838;2022-09-01T15:06:21;2.20;;;2.00;;
32292;SDS011;43233;48.608;8.838;2022-09-01T15:08:47;2.20;;;2.00;;
32292;SDS011;43233;48.608;8.838;2022-09-01T15:11:14;1.93;;;1.83;;
32292;SDS011;43233;48.608;8.838;2022-09-01T15:13:42;1.53;;;1.43;;
32292;SDS011;43233;48.608;8.838;2022-09-01T15:16:17;1.77;;;1.67;;
32292;SDS011;43233;48.608;8.838;2022-09-01T15:18:45;1.70;;;1.40;;
32292;SDS011;43233;48.608;8.838;2022-09-01T15:21:25;1.63;;;1.53;;
32292;SDS011;43233;48.608;8.838;2022-09-01T15:23:52;1.77;;;1.67;;
32292;SDS011;43233;48.608;8.838;2022-09-01T15:26:19;2.70;;;1.70;;
32292;SDS011;43233;48.608;8.838;2022-09-01T15:28:45;1.67;;;1.57;;
32292;SDS011;43233;48.608;8.838;2022-09-01T15:31:13;1.80;;;1.70;;
32292;SDS011;43233;48.608;8.838;2022-09-01T15:33:40;1.80;;;1.70;;
32292;SDS011;43233;48.608;8.838;2022-09-01T15:36:06;1.93;;;1.83;;
32292;SDS011;43233;48.608;8.838;2022-09-01T15:38:32;2.27;;;2.13;;
32292;SDS011;43233;48.608;8.838;2022-09-01T15:40:59;2.23;;;2.13;;
32292;SDS011;43233;48.608;8.838;2022-09-01T15:43:26;2.17;;;2.07;;
32292;SDS011;43233;48.608;8.838;2022-09-01T15:45:53;2.17;;;1.97;;
32292;SDS011;43233;48.608;8.838;2022-09-01T15:48:22;2.00;;;1.90;;
32292;SDS011;43233;48.608;8.838;2022-09-01T15:50:48;3.20;;;2.07;;
32292;SDS011;43233;48.608;8.838;2022-09-01T15:53:13;1.93;;;1.83;;
32292;SDS011;43233;48.608;8.838;2022-09-01T15:55:40;2.37;;;2.27;;